sensor_id;sensor_type;location;lat;lon;timestamp;P1;durP1;ratioP1;P2;durP2;ratioP2
25449;SDS011;13371;52.080;5.624;2022-07-22T00:01:20;10.98;;;2.83;;
25449;SDS011;13371;52.080;5.624;2022-07-22T00:03:46;11.75;;;2.50;;
25449;SDS011;13371;52.080;5.624;2022-07-22T00:06:12;9.68;;;2.42;;
25449;SDS011;13371;52.080;5.624;2022-07-22T00:08:37;12.70;;;2.85;;
25449;SDS011;13371;52.080;5.624;2022-07-22T00:11:03;7.18;;;2.40;;
25449;SDS011;13371;52.080;5.624;2022-07-22T00:13:29;8.70;;;2.53;;
25449;SDS011;13371;52.080;5.624;2022-07-22T00:15:54;7.05;;;2.10;;
25449;SDS011;13371;52.080;5.624;2022-07-22T00:18:20;8.38;;;2.40;;
25449;SDS011;13371;52.080;5.624;2022-07-22T00:20:46;7.95;;;2.30;;
25449;SDS011;13371;52.080;5.624;2022-07-22T00:23:11;9.18;;;3.30;;
25449;SDS011;13371;52.080;5.624;2022-07-22T00:25:37;7.35;;;2.60;;
25449;SDS011;13371;52.080;5.624;2022-07-22T00:28:02;6.80;;;2.47;;
25449;SDS011;13371;52.080;5.624;2022-07-22T00:30:28;8.85;;;2.80;;
25449;SDS011;13371;52.080;5.624;2022-07-22T00:32:54;7.43;;;2.17;;
25449;SDS011;13371;52.080;5.624;2022-07-22T00:35:19;11.23;;;2.55;;
25449;SDS011;13371;52.080;5.624;2022-07-22T00:37:45;6.75;;;2.60;;
25449;SDS011;13371;52.080;5.624;2022-07-22T00:40:11;8.30;;;2.45;;
25449;SDS011;13371;52.080;5.624;2022-07-22T00:42:37;10.63;;;3.13;;
25449;SDS011;13371;52.080;5.624;2022-07-22T00:45:02;9.88;;;2.55;;
25449;SDS011;13371;52.080;5.624;2022-07-22T00:47:29;11.02;;;2.40;;
25449;SDS011;13371;52.080;5.624;2022-07-22T00:49:54;12.18;;;2.63;;
25449;SDS011;13371;52.080;5.624;2022-07-22T00:52:20;7.13;;;2.40;;
25449;SDS011;13371;52.080;5.624;2022-07-22T00:54:46;4.07;;;2.20;;
25449;SDS011;13371;52.080;5.624;2022-07-22T00:57:12;5.97;;;2.30;;
25449;SDS011;13371;52.080;5.624;2022-07-22T00:59:38;6.90;;;2.08;;
25449;SDS011;13371;52.080;5.624;2022-07-22T01:02:04;12.15;;;2.53;;
25449;SDS011;13371;52.080;5.624;2022-07-22T01:04:29;6.20;;;2.42;;
25449;SDS011;13371;52.080;5.624;2022-07-22T01:06:55;4.95;;;2.28;;
25449;SDS011;13371;52.080;5.624;2022-07-22T01:09:21;7.43;;;2.30;;
25449;SDS011;13371;52.080;5.624;2022-07-22T01:11:46;12.32;;;2.83;;
25449;SDS011;13371;52.080;5.624;2022-07-22T01:14:12;10.02;;;2.55;;
25449;SDS011;13371;52.080;5.624;2022-07-22T01:16:38;9.50;;;2.58;;
25449;SDS011;13371;52.080;5.624;2022-07-22T01:19:04;12.77;;;2.65;;
25449;SDS011;13371;52.080;5.624;2022-07-22T01:21:30;4.32;;;1.92;;
25449;SDS011;13371;52.080;5.624;2022-07-22T01:23:55;6.47;;;2.30;;
25449;SDS011;13371;52.080;5.624;2022-07-22T01:26:22;6.70;;;2.40;;
25449;SDS011;13371;52.080;5.624;2022-07-22T01:28:47;8.73;;;2.30;;
25449;SDS011;13371;52.080;5.624;2022-07-22T01:31:13;6.55;;;2.03;;
25449;SDS011;13371;52.080;5.624;2022-07-22T01:33:38;8.88;;;2.47;;
25449;SDS011;13371;52.080;5.624;2022-07-22T01:36:04;6.93;;;2.15;;
25449;SDS011;13371;52.080;5.624;2022-07-22T01:38:30;6.43;;;2.33;;
25449;SDS011;13371;52.080;5.624;2022-07-22T01:40:56;7.55;;;2.22;;
25449;SDS011;13371;52.080;5.624;2022-07-22T01:43:21;8.30;;;2.83;;
25449;SDS011;13371;52.080;5.624;2022-07-22T01:45:48;8.13;;;2.08;;
25449;SDS011;13371;52.080;5.624;2022-07-22T01:48:16;6.50;;;2.22;;
25449;SDS011;13371;52.080;5.624;2022-07-22T01:50:43;5.68;;;2.10;;
25449;SDS011;13371;52.080;5.624;2022-07-22T01:53:09;5.72;;;2.03;;
25449;SDS011;13371;52.080;5.624;2022-07-22T01:55:36;8.43;;;1.92;;
25449;SDS011;13371;52.080;5.624;2022-07-22T01:58:02;7.93;;;3.08;;
25449;SDS011;13371;52.080;5.624;2022-07-22T02:00:29;5.22;;;1.80;;
25449;SDS011;13371;52.080;5.624;2022-07-22T02:02:56;7.80;;;1.80;;
25449;SDS011;13371;52.080;5.624;2022-07-22T02:05:21;6.65;;;2.08;;
25449;SDS011;13371;52.080;5.624;2022-07-22T02:07:47;5.07;;;2.30;;
25449;SDS011;13371;52.080;5.624;2022-07-22T02:10:14;5.20;;;2.08;;
25449;SDS011;13371;52.080;5.624;2022-07-22T02:12:39;5.35;;;2.00;;
25449;SDS011;13371;52.080;5.624;2022-07-22T02:15:05;6.55;;;2.03;;
25449;SDS011;13371;52.080;5.624;2022-07-22T02:17:32;8.88;;;2.53;;
25449;SDS011;13371;52.080;5.624;2022-07-22T02:19:59;11.18;;;2.40;;
25449;SDS011;13371;52.080;5.624;2022-07-22T02:22:24;5.40;;;1.83;;
25449;SDS011;13371;52.080;5.624;2022-07-22T02:24:50;3.75;;;1.85;;
25449;SDS011;13371;52.080;5.624;2022-07-22T02:27:16;5.40;;;2.38;;
25449;SDS011;13371;52.080;5.624;2022-07-22T02:29:41;9.23;;;2.97;;
25449;SDS011;13371;52.080;5.624;2022-07-22T02:32:07;9.82;;;2.55;;
25449;SDS011;13371;52.080;5.624;2022-07-22T02:34:32;7.65;;;2.30;;
25449;SDS011;13371;52.080;5.624;2022-07-22T02:36:58;4.65;;;2.15;;
25449;SDS011;13371;52.080;5.624;2022-07-22T02:39:24;3.70;;;1.80;;
25449;SDS011;13371;52.080;5.624;2022-07-22T02:41:49;4.07;;;2.10;;
25449;SDS011;13371;52.080;5.624;2022-07-22T02:44:15;6.55;;;1.95;;
25449;SDS011;13371;52.080;5.624;2022-07-22T02:46:40;5.43;;;2.13;;
25449;SDS011;13371;52.080;5.624;2022-07-22T02:49:06;5.03;;;1.98;;
25449;SDS011;13371;52.080;5.624;2022-07-22T02:51:31;4.75;;;1.73;;
25449;SDS011;13371;52.080;5.624;2022-07-22T02:53:57;4.70;;;1.95;;
25449;SDS011;13371;52.080;5.624;2022-07-22T02:56:22;5.30;;;2.20;;
25449;SDS011;13371;52.080;5.624;2022-07-22T02:58:48;6.45;;;2.13;;
25449;SDS011;13371;52.080;5.624;2022-07-22T03:01:17;7.70;;;2.10;;
25449;SDS011;13371;52.080;5.624;2022-07-22T03:03:44;4.35;;;2.08;;
25449;SDS011;13371;52.080;5.624;2022-07-22T03:06:09;6.68;;;2.10;;
25449;SDS011;13371;52.080;5.624;2022-07-22T03:08:35;4.32;;;2.17;;
25449;SDS011;13371;52.080;5.624;2022-07-22T03:11:02;5.93;;;2.20;;
25449;SDS011;13371;52.080;5.624;2022-07-22T03:13:27;6.18;;;2.30;;
25449;SDS011;13371;52.080;5.624;2022-07-22T03:15:53;7.28;;;2.42;;
25449;SDS011;13371;52.080;5.624;2022-07-22T03:18:19;8.63;;;2.42;;
25449;SDS011;13371;52.080;5.624;2022-07-22T03:20:44;3.97;;;2.13;;
25449;SDS011;13371;52.080;5.624;2022-07-22T03:23:10;12.60;;;2.50;;
25449;SDS011;13371;52.080;5.624;2022-07-22T03:25:35;9.13;;;2.70;;
25449;SDS011;13371;52.080;5.624;2022-07-22T03:28:01;6.10;;;2.25;;
25449;SDS011;13371;52.080;5.624;2022-07-22T03:30:27;6.00;;;2.25;;
25449;SDS011;13371;52.080;5.624;2022-07-22T03:32:52;6.88;;;2.25;;
25449;SDS011;13371;52.080;5.624;2022-07-22T03:35:18;5.97;;;2.13;;
25449;SDS011;13371;52.080;5.624;2022-07-22T03:37:44;10.50;;;2.42;;
25449;SDS011;13371;52.080;5.624;2022-07-22T03:40:09;5.97;;;2.17;;
25449;SDS011;13371;52.080;5.624;2022-07-22T03:42:36;6.88;;;2.30;;
25449;SDS011;13371;52.080;5.624;2022-07-22T03:45:01;9.07;;;2.60;;
25449;SDS011;13371;52.080;5.624;2022-07-22T03:47:27;9.75;;;2.67;;
25449;SDS011;13371;52.080;5.624;2022-07-22T03:49:53;7.10;;;2.45;;
25449;SDS011;13371;52.080;5.624;2022-07-22T03:52:19;6.90;;;2.28;;
25449;SDS011;13371;52.080;5.624;2022-07-22T03:54:44;4.93;;;2.50;;
25449;SDS011;13371;52.080;5.624;2022-07-22T03:57:10;6.28;;;2.85;;
25449;SDS011;13371;52.080;5.624;2022-07-22T03:59:35;9.70;;;3.30;;
25449;SDS011;13371;52.080;5.624;2022-07-22T04:02:02;9.13;;;2.80;;
25449;SDS011;13371;52.080;5.624;2022-07-22T04:04:28;8.10;;;2.65;;
25449;SDS011;13371;52.080;5.624;2022-07-22T04:06:53;5.63;;;2.42;;
25449;SDS011;13371;52.080;5.624;2022-07-22T04:09:19;7.90;;;2.65;;
25449;SDS011;13371;52.080;5.624;2022-07-22T04:11:45;8.32;;;2.60;;
25449;SDS011;13371;52.080;5.624;2022-07-22T04:14:11;6.63;;;2.85;;
25449;SDS011;13371;52.080;5.624;2022-07-22T04:16:36;6.65;;;2.33;;
25449;SDS011;13371;52.080;5.624;2022-07-22T04:19:02;6.63;;;2.72;;
25449;SDS011;13371;52.080;5.624;2022-07-22T04:21:28;9.18;;;2.78;;
25449;SDS011;13371;52.080;5.624;2022-07-22T04:23:54;8.43;;;2.95;;
25449;SDS011;13371;52.080;5.624;2022-07-22T04:26:20;7.60;;;2.90;;
25449;SDS011;13371;52.080;5.624;2022-07-22T04:28:45;8.70;;;2.95;;
25449;SDS011;13371;52.080;5.624;2022-07-22T04:31:11;6.40;;;3.00;;
25449;SDS011;13371;52.080;5.624;2022-07-22T04:33:36;8.10;;;3.05;;
25449;SDS011;13371;52.080;5.624;2022-07-22T04:36:02;7.95;;;2.67;;
25449;SDS011;13371;52.080;5.624;2022-07-22T04:38:29;11.05;;;2.83;;
25449;SDS011;13371;52.080;5.624;2022-07-22T04:40:54;6.97;;;3.00;;
25449;SDS011;13371;52.080;5.624;2022-07-22T04:43:21;11.95;;;3.03;;
25449;SDS011;13371;52.080;5.624;2022-07-22T04:45:47;4.70;;;2.50;;
25449;SDS011;13371;52.080;5.624;2022-07-22T04:48:12;11.70;;;3.10;;
25449;SDS011;13371;52.080;5.624;2022-07-22T04:50:38;9.23;;;2.88;;
25449;SDS011;13371;52.080;5.624;2022-07-22T04:53:03;5.97;;;3.05;;
25449;SDS011;13371;52.080;5.624;2022-07-22T04:55:29;8.00;;;2.72;;
25449;SDS011;13371;52.080;5.624;2022-07-22T04:57:55;9.32;;;2.67;;
25449;SDS011;13371;52.080;5.624;2022-07-22T05:00:21;7.70;;;3.15;;
25449;SDS011;13371;52.080;5.624;2022-07-22T05:02:46;9.35;;;3.10;;
25449;SDS011;13371;52.080;5.624;2022-07-22T05:05:12;6.00;;;2.78;;
25449;SDS011;13371;52.080;5.624;2022-07-22T05:07:38;10.48;;;2.90;;
25449;SDS011;13371;52.080;5.624;2022-07-22T05:10:04;8.93;;;3.30;;
25449;SDS011;13371;52.080;5.624;2022-07-22T05:12:30;11.60;;;3.33;;
25449;SDS011;13371;52.080;5.624;2022-07-22T05:14:55;8.18;;;3.30;;
25449;SDS011;13371;52.080;5.624;2022-07-22T05:17:21;8.77;;;3.50;;
25449;SDS011;13371;52.080;5.624;2022-07-22T05:19:47;11.77;;;3.38;;
25449;SDS011;13371;52.080;5.624;2022-07-22T05:22:12;8.35;;;3.40;;
25449;SDS011;13371;52.080;5.624;2022-07-22T05:24:38;8.57;;;3.42;;
25449;SDS011;13371;52.080;5.624;2022-07-22T05:27:03;11.10;;;3.50;;
25449;SDS011;13371;52.080;5.624;2022-07-22T05:29:29;9.18;;;3.80;;
25449;SDS011;13371;52.080;5.624;2022-07-22T05:31:55;11.57;;;4.30;;
25449;SDS011;13371;52.080;5.624;2022-07-22T05:34:21;10.60;;;3.67;;
25449;SDS011;13371;52.080;5.624;2022-07-22T05:36:47;7.55;;;3.63;;
25449;SDS011;13371;52.080;5.624;2022-07-22T05:39:12;8.98;;;3.97;;
25449;SDS011;13371;52.080;5.624;2022-07-22T05:41:38;9.50;;;3.70;;
25449;SDS011;13371;52.080;5.624;2022-07-22T05:44:04;5.85;;;3.20;;
25449;SDS011;13371;52.080;5.624;2022-07-22T05:46:30;7.40;;;3.58;;
25449;SDS011;13371;52.080;5.624;2022-07-22T05:48:56;11.63;;;3.92;;
25449;SDS011;13371;52.080;5.624;2022-07-22T05:51:22;10.75;;;4.07;;
25449;SDS011;13371;52.080;5.624;2022-07-22T05:53:47;6.53;;;3.80;;
25449;SDS011;13371;52.080;5.624;2022-07-22T05:56:13;12.32;;;4.20;;
25449;SDS011;13371;52.080;5.624;2022-07-22T05:58:39;10.80;;;4.47;;
25449;SDS011;13371;52.080;5.624;2022-07-22T06:01:06;5.47;;;3.95;;
25449;SDS011;13371;52.080;5.624;2022-07-22T06:03:32;7.75;;;3.70;;
25449;SDS011;13371;52.080;5.624;2022-07-22T06:05:57;9.80;;;4.43;;
25449;SDS011;13371;52.080;5.624;2022-07-22T06:08:23;9.13;;;3.88;;
25449;SDS011;13371;52.080;5.624;2022-07-22T06:10:49;6.15;;;3.97;;
25449;SDS011;13371;52.080;5.624;2022-07-22T06:13:14;7.25;;;3.67;;
25449;SDS011;13371;52.080;5.624;2022-07-22T06:15:40;9.70;;;4.03;;
25449;SDS011;13371;52.080;5.624;2022-07-22T06:18:05;8.13;;;3.95;;
25449;SDS011;13371;52.080;5.624;2022-07-22T06:20:31;8.70;;;4.10;;
25449;SDS011;13371;52.080;5.624;2022-07-22T06:22:57;7.88;;;3.70;;
25449;SDS011;13371;52.080;5.624;2022-07-22T06:25:22;8.38;;;3.88;;
25449;SDS011;13371;52.080;5.624;2022-07-22T06:27:48;9.23;;;3.85;;
25449;SDS011;13371;52.080;5.624;2022-07-22T06:30:13;7.57;;;3.58;;
25449;SDS011;13371;52.080;5.624;2022-07-22T06:32:39;9.45;;;3.35;;
25449;SDS011;13371;52.080;5.624;2022-07-22T06:35:05;6.97;;;3.38;;
25449;SDS011;13371;52.080;5.624;2022-07-22T06:37:31;6.78;;;3.55;;
25449;SDS011;13371;52.080;5.624;2022-07-22T06:39:57;11.93;;;3.50;;
25449;SDS011;13371;52.080;5.624;2022-07-22T06:42:22;8.23;;;3.30;;
25449;SDS011;13371;52.080;5.624;2022-07-22T06:44:48;7.65;;;3.53;;
25449;SDS011;13371;52.080;5.624;2022-07-22T06:47:14;8.35;;;3.38;;
25449;SDS011;13371;52.080;5.624;2022-07-22T06:49:39;6.97;;;3.03;;
25449;SDS011;13371;52.080;5.624;2022-07-22T06:52:05;6.28;;;3.58;;
25449;SDS011;13371;52.080;5.624;2022-07-22T06:54:31;9.85;;;2.85;;
25449;SDS011;13371;52.080;5.624;2022-07-22T06:56:56;5.18;;;2.47;;
25449;SDS011;13371;52.080;5.624;2022-07-22T06:59:23;8.05;;;2.88;;
25449;SDS011;13371;52.080;5.624;2022-07-22T07:01:48;12.23;;;3.22;;
25449;SDS011;13371;52.080;5.624;2022-07-22T07:04:14;6.63;;;3.05;;
25449;SDS011;13371;52.080;5.624;2022-07-22T07:06:40;5.40;;;2.78;;
25449;SDS011;13371;52.080;5.624;2022-07-22T07:09:26;4.45;;;2.60;;
25449;SDS011;13371;52.080;5.624;2022-07-22T07:11:51;7.88;;;3.00;;
25449;SDS011;13371;52.080;5.624;2022-07-22T07:14:17;9.02;;;3.75;;
25449;SDS011;13371;52.080;5.624;2022-07-22T07:16:42;4.43;;;2.63;;
25449;SDS011;13371;52.080;5.624;2022-07-22T07:19:14;5.43;;;2.42;;
25449;SDS011;13371;52.080;5.624;2022-07-22T07:21:52;8.57;;;2.83;;
25449;SDS011;13371;52.080;5.624;2022-07-22T07:24:29;7.32;;;3.20;;
25449;SDS011;13371;52.080;5.624;2022-07-22T07:26:54;6.30;;;2.67;;
25449;SDS011;13371;52.080;5.624;2022-07-22T07:29:20;10.20;;;2.72;;
25449;SDS011;13371;52.080;5.624;2022-07-22T07:31:50;7.43;;;2.58;;
25449;SDS011;13371;52.080;5.624;2022-07-22T07:34:36;6.85;;;2.40;;
25449;SDS011;13371;52.080;5.624;2022-07-22T07:37:01;6.15;;;2.00;;
25449;SDS011;13371;52.080;5.624;2022-07-22T07:39:27;5.25;;;2.55;;
25449;SDS011;13371;52.080;5.624;2022-07-22T07:41:52;5.22;;;2.40;;
25449;SDS011;13371;52.080;5.624;2022-07-22T07:44:18;8.27;;;2.30;;
25449;SDS011;13371;52.080;5.624;2022-07-22T07:46:44;5.93;;;2.40;;
25449;SDS011;13371;52.080;5.624;2022-07-22T07:49:09;4.05;;;2.30;;
25449;SDS011;13371;52.080;5.624;2022-07-22T07:51:35;5.80;;;2.65;;
25449;SDS011;13371;52.080;5.624;2022-07-22T07:54:01;8.35;;;2.35;;
25449;SDS011;13371;52.080;5.624;2022-07-22T07:56:26;5.45;;;2.50;;
25449;SDS011;13371;52.080;5.624;2022-07-22T07:58:52;4.22;;;2.30;;
25449;SDS011;13371;52.080;5.624;2022-07-22T08:01:17;13.18;;;2.42;;
25449;SDS011;13371;52.080;5.624;2022-07-22T08:03:43;9.13;;;2.35;;
25449;SDS011;13371;52.080;5.624;2022-07-22T08:06:09;7.25;;;2.50;;
25449;SDS011;13371;52.080;5.624;2022-07-22T08:08:34;7.80;;;2.58;;
25449;SDS011;13371;52.080;5.624;2022-07-22T08:11:00;12.93;;;3.67;;
25449;SDS011;13371;52.080;5.624;2022-07-22T08:13:25;7.80;;;2.15;;
25449;SDS011;13371;52.080;5.624;2022-07-22T08:15:51;6.05;;;2.05;;
25449;SDS011;13371;52.080;5.624;2022-07-22T08:18:17;6.97;;;2.22;;
25449;SDS011;13371;52.080;5.624;2022-07-22T08:20:43;5.65;;;1.92;;
25449;SDS011;13371;52.080;5.624;2022-07-22T08:23:08;5.65;;;2.40;;
25449;SDS011;13371;52.080;5.624;2022-07-22T08:25:34;9.02;;;1.92;;
25449;SDS011;13371;52.080;5.624;2022-07-22T08:27:59;9.18;;;2.42;;
25449;SDS011;13371;52.080;5.624;2022-07-22T08:30:25;6.40;;;2.30;;
25449;SDS011;13371;52.080;5.624;2022-07-22T08:32:53;5.03;;;1.83;;
25449;SDS011;13371;52.080;5.624;2022-07-22T08:35:19;7.40;;;2.20;;
25449;SDS011;13371;52.080;5.624;2022-07-22T08:37:45;7.50;;;2.35;;
25449;SDS011;13371;52.080;5.624;2022-07-22T08:40:12;7.63;;;2.17;;
25449;SDS011;13371;52.080;5.624;2022-07-22T08:42:40;5.90;;;2.30;;
25449;SDS011;13371;52.080;5.624;2022-07-22T08:45:07;7.65;;;2.42;;
25449;SDS011;13371;52.080;5.624;2022-07-22T08:47:34;6.10;;;2.28;;
25449;SDS011;13371;52.080;5.624;2022-07-22T08:50:00;8.82;;;1.80;;
25449;SDS011;13371;52.080;5.624;2022-07-22T08:52:26;3.70;;;1.50;;
25449;SDS011;13371;52.080;5.624;2022-07-22T08:54:52;5.95;;;1.70;;
25449;SDS011;13371;52.080;5.624;2022-07-22T08:57:17;5.38;;;1.88;;
25449;SDS011;13371;52.080;5.624;2022-07-22T08:59:50;6.40;;;2.10;;
25449;SDS011;13371;52.080;5.624;2022-07-22T09:02:23;4.07;;;1.70;;
25449;SDS011;13371;52.080;5.624;2022-07-22T09:04:59;3.35;;;1.70;;
25449;SDS011;13371;52.080;5.624;2022-07-22T09:07:29;3.35;;;1.63;;
25449;SDS011;13371;52.080;5.624;2022-07-22T09:09:57;6.82;;;2.08;;
25449;SDS011;13371;52.080;5.624;2022-07-22T09:12:23;8.13;;;2.17;;
25449;SDS011;13371;52.080;5.624;2022-07-22T09:14:51;5.15;;;1.90;;
25449;SDS011;13371;52.080;5.624;2022-07-22T09:19:50;6.80;;;2.00;;
25449;SDS011;13371;52.080;5.624;2022-07-22T09:22:33;8.75;;;2.10;;
25449;SDS011;13371;52.080;5.624;2022-07-22T09:25:20;12.70;;;2.55;;
25449;SDS011;13371;52.080;5.624;2022-07-22T09:27:46;7.22;;;1.90;;
25449;SDS011;13371;52.080;5.624;2022-07-22T09:30:14;5.40;;;2.25;;
25449;SDS011;13371;52.080;5.624;2022-07-22T09:32:40;6.22;;;2.30;;
25449;SDS011;13371;52.080;5.624;2022-07-22T09:35:07;8.43;;;2.15;;
25449;SDS011;13371;52.080;5.624;2022-07-22T09:37:33;6.50;;;2.15;;
25449;SDS011;13371;52.080;5.624;2022-07-22T09:40:12;7.03;;;2.13;;
25449;SDS011;13371;52.080;5.624;2022-07-22T09:42:49;3.67;;;2.10;;
25449;SDS011;13371;52.080;5.624;2022-07-22T09:45:17;5.95;;;2.13;;
25449;SDS011;13371;52.080;5.624;2022-07-22T09:47:44;4.60;;;1.58;;
25449;SDS011;13371;52.080;5.624;2022-07-22T09:50:14;5.15;;;1.80;;
25449;SDS011;13371;52.080;5.624;2022-07-22T09:52:44;4.95;;;1.88;;
25449;SDS011;13371;52.080;5.624;2022-07-22T09:55:10;4.43;;;1.77;;
25449;SDS011;13371;52.080;5.624;2022-07-22T09:57:38;6.80;;;2.30;;
25449;SDS011;13371;52.080;5.624;2022-07-22T10:00:04;6.25;;;1.88;;
25449;SDS011;13371;52.080;5.624;2022-07-22T10:02:33;5.57;;;2.38;;
25449;SDS011;13371;52.080;5.624;2022-07-22T10:05:21;8.68;;;2.13;;
25449;SDS011;13371;52.080;5.624;2022-07-22T10:07:48;4.65;;;2.10;;
25449;SDS011;13371;52.080;5.624;2022-07-22T10:10:16;4.85;;;2.22;;
25449;SDS011;13371;52.080;5.624;2022-07-22T10:12:43;14.02;;;2.70;;
25449;SDS011;13371;52.080;5.624;2022-07-22T10:15:12;7.00;;;2.45;;
25449;SDS011;13371;52.080;5.624;2022-07-22T10:17:48;3.28;;;2.00;;
25449;SDS011;13371;52.080;5.624;2022-07-22T10:20:18;10.85;;;2.00;;
25449;SDS011;13371;52.080;5.624;2022-07-22T10:25:12;5.15;;;1.95;;
25449;SDS011;13371;52.080;5.624;2022-07-22T10:27:45;3.67;;;1.50;;
25449;SDS011;13371;52.080;5.624;2022-07-22T10:30:13;5.00;;;1.98;;
25449;SDS011;13371;52.080;5.624;2022-07-22T10:32:41;4.22;;;1.90;;
25449;SDS011;13371;52.080;5.624;2022-07-22T10:37:36;4.03;;;2.08;;
25449;SDS011;13371;52.080;5.624;2022-07-22T10:40:15;2.97;;;1.52;;
25449;SDS011;13371;52.080;5.624;2022-07-22T10:45:35;3.63;;;1.17;;
25449;SDS011;13371;52.080;5.624;2022-07-22T10:48:02;5.55;;;1.95;;
25449;SDS011;13371;52.080;5.624;2022-07-22T10:53:05;3.53;;;1.60;;
25449;SDS011;13371;52.080;5.624;2022-07-22T10:55:32;5.85;;;1.80;;
25449;SDS011;13371;52.080;5.624;2022-07-22T10:57:58;4.97;;;1.60;;
25449;SDS011;13371;52.080;5.624;2022-07-22T11:00:23;6.88;;;1.48;;
25449;SDS011;13371;52.080;5.624;2022-07-22T11:02:49;8.63;;;1.90;;
25449;SDS011;13371;52.080;5.624;2022-07-22T11:05:23;4.93;;;1.45;;
25449;SDS011;13371;52.080;5.624;2022-07-22T11:07:55;4.80;;;1.63;;
25449;SDS011;13371;52.080;5.624;2022-07-22T11:10:20;4.30;;;1.45;;
25449;SDS011;13371;52.080;5.624;2022-07-22T11:12:47;3.13;;;1.60;;
25449;SDS011;13371;52.080;5.624;2022-07-22T11:15:13;2.38;;;1.35;;
25449;SDS011;13371;52.080;5.624;2022-07-22T11:17:40;2.40;;;1.25;;
25449;SDS011;13371;52.080;5.624;2022-07-22T11:20:06;4.32;;;1.50;;
25449;SDS011;13371;52.080;5.624;2022-07-22T11:22:34;6.22;;;1.40;;
25449;SDS011;13371;52.080;5.624;2022-07-22T11:25:00;8.15;;;1.70;;
25449;SDS011;13371;52.080;5.624;2022-07-22T11:27:29;3.67;;;1.48;;
25449;SDS011;13371;52.080;5.624;2022-07-22T11:29:55;4.30;;;1.65;;
25449;SDS011;13371;52.080;5.624;2022-07-22T11:32:22;6.93;;;1.70;;
25449;SDS011;13371;52.080;5.624;2022-07-22T11:34:49;4.38;;;1.40;;
25449;SDS011;13371;52.080;5.624;2022-07-22T11:37:17;4.85;;;1.67;;
25449;SDS011;13371;52.080;5.624;2022-07-22T11:39:50;4.60;;;1.65;;
25449;SDS011;13371;52.080;5.624;2022-07-22T11:42:17;5.53;;;1.77;;
25449;SDS011;13371;52.080;5.624;2022-07-22T11:44:43;5.55;;;1.73;;
25449;SDS011;13371;52.080;5.624;2022-07-22T11:47:09;5.28;;;1.75;;
25449;SDS011;13371;52.080;5.624;2022-07-22T11:49:37;4.03;;;1.80;;
25449;SDS011;13371;52.080;5.624;2022-07-22T11:52:04;3.78;;;1.50;;
25449;SDS011;13371;52.080;5.624;2022-07-22T11:54:36;7.60;;;1.70;;
25449;SDS011;13371;52.080;5.624;2022-07-22T11:57:03;3.97;;;1.50;;
25449;SDS011;13371;52.080;5.624;2022-07-22T11:59:28;5.22;;;1.83;;
25449;SDS011;13371;52.080;5.624;2022-07-22T12:01:54;8.05;;;2.10;;
25449;SDS011;13371;52.080;5.624;2022-07-22T12:04:23;5.18;;;1.55;;
25449;SDS011;13371;52.080;5.624;2022-07-22T12:06:51;3.75;;;1.23;;
25449;SDS011;13371;52.080;5.624;2022-07-22T12:09:25;3.20;;;1.83;;
25449;SDS011;13371;52.080;5.624;2022-07-22T12:11:54;4.97;;;1.48;;
25449;SDS011;13371;52.080;5.624;2022-07-22T12:14:26;4.97;;;1.65;;
25449;SDS011;13371;52.080;5.624;2022-07-22T12:19:24;5.78;;;1.65;;
25449;SDS011;13371;52.080;5.624;2022-07-22T12:24:33;4.78;;;1.60;;
25449;SDS011;13371;52.080;5.624;2022-07-22T12:27:04;4.13;;;1.60;;
25449;SDS011;13371;52.080;5.624;2022-07-22T12:29:41;3.78;;;1.58;;
25449;SDS011;13371;52.080;5.624;2022-07-22T12:34:43;5.90;;;1.75;;
25449;SDS011;13371;52.080;5.624;2022-07-22T12:37:23;4.43;;;1.38;;
25449;SDS011;13371;52.080;5.624;2022-07-22T12:40:00;4.65;;;1.45;;
25449;SDS011;13371;52.080;5.624;2022-07-22T12:45:08;6.70;;;1.63;;
25449;SDS011;13371;52.080;5.624;2022-07-22T12:52:53;3.67;;;1.55;;
25449;SDS011;13371;52.080;5.624;2022-07-22T12:55:23;5.90;;;1.60;;
25449;SDS011;13371;52.080;5.624;2022-07-22T12:57:49;5.03;;;2.08;;
25449;SDS011;13371;52.080;5.624;2022-07-22T13:00:16;6.50;;;1.95;;
25449;SDS011;13371;52.080;5.624;2022-07-22T13:02:43;3.08;;;1.92;;
25449;SDS011;13371;52.080;5.624;2022-07-22T13:05:09;3.92;;;1.83;;
25449;SDS011;13371;52.080;5.624;2022-07-22T13:07:34;5.43;;;2.08;;
25449;SDS011;13371;52.080;5.624;2022-07-22T13:10:00;5.78;;;2.30;;
25449;SDS011;13371;52.080;5.624;2022-07-22T13:12:25;3.78;;;1.85;;
25449;SDS011;13371;52.080;5.624;2022-07-22T13:14:51;4.70;;;1.88;;
25449;SDS011;13371;52.080;5.624;2022-07-22T13:17:16;5.38;;;2.15;;
25449;SDS011;13371;52.080;5.624;2022-07-22T13:19:42;3.90;;;1.90;;
25449;SDS011;13371;52.080;5.624;2022-07-22T13:22:08;5.60;;;1.85;;
25449;SDS011;13371;52.080;5.624;2022-07-22T13:24:34;4.18;;;2.00;;
25449;SDS011;13371;52.080;5.624;2022-07-22T13:27:00;4.50;;;1.52;;
25449;SDS011;13371;52.080;5.624;2022-07-22T13:29:25;5.93;;;2.00;;
25449;SDS011;13371;52.080;5.624;2022-07-22T13:31:51;3.10;;;1.75;;
25449;SDS011;13371;52.080;5.624;2022-07-22T13:34:16;7.55;;;1.90;;
25449;SDS011;13371;52.080;5.624;2022-07-22T13:36:42;5.00;;;1.80;;
25449;SDS011;13371;52.080;5.624;2022-07-22T13:39:07;4.75;;;1.95;;
25449;SDS011;13371;52.080;5.624;2022-07-22T13:41:34;10.18;;;2.58;;
25449;SDS011;13371;52.080;5.624;2022-07-22T13:43:59;3.28;;;1.70;;
25449;SDS011;13371;52.080;5.624;2022-07-22T13:46:25;5.65;;;1.70;;
25449;SDS011;13371;52.080;5.624;2022-07-22T13:48:50;5.45;;;1.80;;
25449;SDS011;13371;52.080;5.624;2022-07-22T13:51:18;5.10;;;2.00;;
25449;SDS011;13371;52.080;5.624;2022-07-22T13:53:43;4.82;;;1.85;;
25449;SDS011;13371;52.080;5.624;2022-07-22T13:56:09;4.97;;;1.83;;
25449;SDS011;13371;52.080;5.624;2022-07-22T13:58:36;4.10;;;1.67;;
25449;SDS011;13371;52.080;5.624;2022-07-22T14:01:03;4.70;;;1.67;;
25449;SDS011;13371;52.080;5.624;2022-07-22T14:03:31;9.82;;;2.60;;
25449;SDS011;13371;52.080;5.624;2022-07-22T14:05:57;3.67;;;1.63;;
25449;SDS011;13371;52.080;5.624;2022-07-22T14:08:22;6.88;;;2.60;;
25449;SDS011;13371;52.080;5.624;2022-07-22T14:10:48;4.53;;;1.90;;
25449;SDS011;13371;52.080;5.624;2022-07-22T14:13:13;3.85;;;2.03;;
25449;SDS011;13371;52.080;5.624;2022-07-22T14:15:39;3.78;;;1.83;;
25449;SDS011;13371;52.080;5.624;2022-07-22T14:18:04;5.35;;;1.95;;
25449;SDS011;13371;52.080;5.624;2022-07-22T14:20:31;5.35;;;2.25;;
25449;SDS011;13371;52.080;5.624;2022-07-22T14:22:58;7.80;;;2.15;;
25449;SDS011;13371;52.080;5.624;2022-07-22T14:25:23;4.35;;;2.05;;
25449;SDS011;13371;52.080;5.624;2022-07-22T14:27:49;5.00;;;2.03;;
25449;SDS011;13371;52.080;5.624;2022-07-22T14:30:15;5.13;;;2.30;;
25449;SDS011;13371;52.080;5.624;2022-07-22T14:32:40;4.03;;;2.03;;
25449;SDS011;13371;52.080;5.624;2022-07-22T14:35:06;7.53;;;2.92;;
25449;SDS011;13371;52.080;5.624;2022-07-22T14:37:33;5.50;;;2.28;;
25449;SDS011;13371;52.080;5.624;2022-07-22T14:39:58;5.10;;;2.35;;
25449;SDS011;13371;52.080;5.624;2022-07-22T14:42:24;4.75;;;2.50;;
25449;SDS011;13371;52.080;5.624;2022-07-22T14:44:49;8.32;;;2.80;;
25449;SDS011;13371;52.080;5.624;2022-07-22T14:47:15;5.57;;;2.80;;
25449;SDS011;13371;52.080;5.624;2022-07-22T14:49:41;3.78;;;2.08;;
25449;SDS011;13371;52.080;5.624;2022-07-22T14:52:07;6.32;;;2.50;;
25449;SDS011;13371;52.080;5.624;2022-07-22T14:54:32;3.85;;;2.47;;
25449;SDS011;13371;52.080;5.624;2022-07-22T14:56:58;5.63;;;2.60;;
25449;SDS011;13371;52.080;5.624;2022-07-22T14:59:23;6.63;;;3.42;;
25449;SDS011;13371;52.080;5.624;2022-07-22T15:01:51;6.97;;;3.38;;
25449;SDS011;13371;52.080;5.624;2022-07-22T15:04:17;6.20;;;3.28;;
25449;SDS011;13371;52.080;5.624;2022-07-22T15:06:42;4.55;;;3.03;;
25449;SDS011;13371;52.080;5.624;2022-07-22T15:09:08;5.03;;;2.70;;
25449;SDS011;13371;52.080;5.624;2022-07-22T15:11:34;4.68;;;2.53;;